createdAt,value
2019-04-16T00:01:23.757Z,17.83
2019-04-16T00:03:56.252Z,15.37
2019-04-16T00:06:29.029Z,15.10
2019-04-16T00:09:10.864Z,16.53
2019-04-16T00:11:40.638Z,14.67
2019-04-16T00:14:10.393Z,16.97
2019-04-16T00:16:38.595Z,17.00
2019-04-16T00:19:06.865Z,19.77
2019-04-16T00:21:38.513Z,16.37
2019-04-16T00:24:11.012Z,15.70
2019-04-16T00:26:39.125Z,17.33
2019-04-16T00:29:07.352Z,17.77
2019-04-16T00:31:37.075Z,15.37
2019-04-16T00:34:05.568Z,16.23
2019-04-16T00:36:33.789Z,15.17
2019-04-16T00:39:01.920Z,16.37
2019-04-16T00:41:30.035Z,18.53
2019-04-16T00:43:58.189Z,21.77
2019-04-16T00:46:26.364Z,18.33
2019-04-16T00:48:54.500Z,17.03
2019-04-16T00:51:22.718Z,18.03
2019-04-16T00:53:50.910Z,18.47
2019-04-16T00:56:19.029Z,21.20
2019-04-16T00:58:49.368Z,16.87
2019-04-16T01:01:17.006Z,21.27
2019-04-16T01:03:45.155Z,17.27
2019-04-16T01:06:13.274Z,20.23
2019-04-16T01:08:53.842Z,21.57
2019-04-16T01:11:11.252Z,21.83
2019-04-16T01:13:40.155Z,18.20
2019-04-16T01:16:08.363Z,17.50
2019-04-16T01:18:38.781Z,19.27
2019-04-16T01:21:06.551Z,17.97
2019-04-16T01:23:34.695Z,18.10
2019-04-16T01:26:02.911Z,20.83
2019-04-16T01:28:32.762Z,17.10
2019-04-16T01:31:08.141Z,17.23
2019-04-16T01:33:36.780Z,20.23
2019-04-16T01:36:06.683Z,16.13
2019-04-16T01:38:42.700Z,17.67
2019-04-16T01:41:12.462Z,19.17
2019-04-16T01:43:40.598Z,15.73
2019-04-16T01:46:08.785Z,14.93
2019-04-16T01:48:38.927Z,16.00
2019-04-16T01:51:06.814Z,16.20
2019-04-16T01:53:35.041Z,16.50
2019-04-16T01:56:03.302Z,16.90
2019-04-16T01:58:33.821Z,15.80
2019-04-16T02:01:01.300Z,15.20
2019-04-16T02:03:29.512Z,15.20
2019-04-16T02:05:57.997Z,18.23
2019-04-16T02:08:28.265Z,14.27
2019-04-16T02:10:56.028Z,14.97
2019-04-16T02:13:24.148Z,16.77
2019-04-16T02:15:53.563Z,18.40
2019-04-16T02:18:22.139Z,14.37
2019-04-16T02:20:50.262Z,13.53
2019-04-16T02:23:18.469Z,17.60
2019-04-16T02:25:48.571Z,16.23
2019-04-16T02:28:16.511Z,13.00
2019-04-16T02:30:44.631Z,15.17
2019-04-16T02:33:12.930Z,16.90
2019-04-16T02:35:42.414Z,14.83
2019-04-16T02:38:13.185Z,15.83
2019-04-16T02:40:40.389Z,13.83
2019-04-16T02:43:08.594Z,18.17
2019-04-16T02:45:36.713Z,17.23
2019-04-16T02:48:05.158Z,16.70
2019-04-16T02:50:35.367Z,16.23
2019-04-16T02:53:17.514Z,16.00
2019-04-16T02:56:03.784Z,16.43
2019-04-16T02:58:34.404Z,16.47
2019-04-16T03:01:08.069Z,17.13
2019-04-16T03:03:37.907Z,18.53
2019-04-16T03:06:06.167Z,15.80
2019-04-16T03:08:36.132Z,16.27
2019-04-16T03:11:04.240Z,15.10
2019-04-16T03:13:32.344Z,15.60
2019-04-16T03:16:08.582Z,15.90
2019-04-16T03:18:41.240Z,16.37
2019-04-16T03:21:09.452Z,15.43
2019-04-16T03:23:37.877Z,15.93
2019-04-16T03:26:06.228Z,17.67
2019-04-16T03:28:34.440Z,17.17
2019-04-16T03:31:07.484Z,17.20
2019-04-16T03:33:32.570Z,16.90
2019-04-16T03:36:00.794Z,17.40
2019-04-16T03:38:28.983Z,17.10
2019-04-16T03:40:57.125Z,18.00
2019-04-16T03:43:25.268Z,18.07
2019-04-16T03:45:53.468Z,16.40
2019-04-16T03:48:24.431Z,15.50
2019-04-16T03:50:51.532Z,16.83
2019-04-16T03:53:19.664Z,17.33
2019-04-16T03:55:47.811Z,19.23
2019-04-16T03:58:15.923Z,21.47
2019-04-16T04:00:45.080Z,17.93
2019-04-16T04:03:13.322Z,16.07
2019-04-16T04:05:41.532Z,18.87
2019-04-16T04:08:09.648Z,20.43
2019-04-16T04:10:37.926Z,18.70
2019-04-16T04:13:06.268Z,20.07
2019-04-16T04:15:34.399Z,24.83
2019-04-16T04:18:02.676Z,20.53
2019-04-16T04:20:31.070Z,17.30
2019-04-16T04:22:59.211Z,21.23
2019-04-16T04:25:27.344Z,19.80
2019-04-16T04:27:55.573Z,20.97
2019-04-16T04:30:25.629Z,20.33
2019-04-16T04:32:54.798Z,22.87
2019-04-16T04:35:22.910Z,19.17
2019-04-16T04:37:51.065Z,21.07
2019-04-16T04:40:19.189Z,19.27
2019-04-16T04:42:49.017Z,25.37
2019-04-16T04:45:17.352Z,20.73
2019-04-16T04:47:45.455Z,19.43
2019-04-16T04:50:13.760Z,22.90
2019-04-16T04:52:43.267Z,21.33
2019-04-16T04:55:11.792Z,24.63
2019-04-16T04:57:39.907Z,18.93
2019-04-16T05:00:08.672Z,22.07
2019-04-16T05:02:37.735Z,20.43
2019-04-16T05:05:26.178Z,20.10
2019-04-16T05:07:54.308Z,17.50
2019-04-16T05:10:22.435Z,24.63
2019-04-16T05:12:53.532Z,20.77
2019-04-16T05:15:20.499Z,19.43
2019-04-16T05:17:48.648Z,25.63
2019-04-16T05:20:16.845Z,20.40
2019-04-16T05:22:45.506Z,17.80
2019-04-16T05:25:14.589Z,19.47
2019-04-16T05:27:42.709Z,21.23
2019-04-16T05:30:11.145Z,20.03
2019-04-16T05:32:39.271Z,20.13
2019-04-16T05:35:10.271Z,24.43
2019-04-16T05:37:37.419Z,19.03
2019-04-16T05:40:06.128Z,20.10
2019-04-16T05:42:34.343Z,18.53
2019-04-16T05:45:05.654Z,20.50
2019-04-16T05:47:32.567Z,16.70
2019-04-16T05:50:00.685Z,20.80
2019-04-16T05:52:28.819Z,20.20
2019-04-16T05:55:01.214Z,20.67
2019-04-16T05:57:30.059Z,18.50
2019-04-16T05:59:58.183Z,21.93
2019-04-16T06:02:42.418Z,20.77
2019-04-16T06:05:10.706Z,21.07
2019-04-16T06:07:38.857Z,21.37
2019-04-16T06:10:07.835Z,20.90
2019-04-16T06:12:54.096Z,19.67
2019-04-16T06:15:26.345Z,17.17
2019-04-16T06:17:58.846Z,22.00
2019-04-16T06:20:28.623Z,20.27
2019-04-16T06:23:07.576Z,18.90
2019-04-16T06:25:52.730Z,17.43
2019-04-16T06:28:25.203Z,20.83
2019-04-16T06:31:05.285Z,24.23
2019-04-16T06:33:35.574Z,17.07
2019-04-16T06:36:14.093Z,20.17
2019-04-16T06:39:02.641Z,20.33
2019-04-16T06:41:41.685Z,22.93
2019-04-16T06:44:04.275Z,24.33
2019-04-16T06:46:34.152Z,19.03
2019-04-16T06:49:19.297Z,16.37
2019-04-16T06:51:59.678Z,16.50
2019-04-16T06:54:47.892Z,20.97
2019-04-16T06:57:26.783Z,21.03
2019-04-16T06:59:55.580Z,16.50
2019-04-16T07:02:44.012Z,16.40
2019-04-16T07:05:16.823Z,18.13
2019-04-16T07:08:03.399Z,17.90
2019-04-16T07:10:49.657Z,16.80
2019-04-16T07:13:17.782Z,16.33
2019-04-16T07:15:45.990Z,17.53
2019-04-16T07:18:14.194Z,14.93
2019-04-16T07:20:45.720Z,17.00
2019-04-16T07:23:12.227Z,15.80
2019-04-16T07:25:43.304Z,21.90
2019-04-16T07:28:29.018Z,17.10
2019-04-16T07:30:58.876Z,16.40
2019-04-16T07:33:28.703Z,14.40
2019-04-16T07:36:04.296Z,17.97
2019-04-16T07:38:35.135Z,16.13
2019-04-16T07:41:24.022Z,14.47
2019-04-16T07:44:10.723Z,15.07
2019-04-16T07:46:44.204Z,14.33
2019-04-16T07:49:29.665Z,14.10
2019-04-16T07:52:14.311Z,18.77
2019-04-16T07:55:00.470Z,13.63
2019-04-16T07:57:28.602Z,16.30
2019-04-16T07:59:56.907Z,15.70
2019-04-16T08:02:25.505Z,14.97
2019-04-16T08:04:54.013Z,14.33
2019-04-16T08:07:22.265Z,16.23
2019-04-16T08:09:50.408Z,18.67
2019-04-16T08:12:29.841Z,16.57
2019-04-16T08:14:48.379Z,14.17
2019-04-16T08:17:16.503Z,16.90
2019-04-16T08:19:49.103Z,15.80
2019-04-16T08:22:15.826Z,17.20
2019-04-16T08:25:02.895Z,15.97
2019-04-16T08:27:28.364Z,15.77
2019-04-16T08:30:02.197Z,14.93
2019-04-16T08:32:26.705Z,18.03
2019-04-16T08:34:54.852Z,14.60
2019-04-16T08:37:22.971Z,16.57
2019-04-16T08:39:51.108Z,14.40
2019-04-16T08:42:24.212Z,17.63
2019-04-16T08:44:49.170Z,17.87
2019-04-16T08:47:17.283Z,15.60
2019-04-16T08:49:45.596Z,14.57
2019-04-16T08:52:13.829Z,14.77
2019-04-16T08:54:42.051Z,18.80
2019-04-16T08:57:10.169Z,16.60
2019-04-16T08:59:39.490Z,16.83
2019-04-16T09:02:08.706Z,19.57
2019-04-16T09:04:36.922Z,18.90
2019-04-16T09:07:12.012Z,13.40
2019-04-16T09:09:36.530Z,16.90
2019-04-16T09:12:08.892Z,15.80
2019-04-16T09:14:37.388Z,17.63
2019-04-16T09:17:18.888Z,17.30
2019-04-16T09:19:51.831Z,15.93
2019-04-16T09:22:19.973Z,19.37
2019-04-16T09:24:52.705Z,16.40
2019-04-16T09:27:28.595Z,17.27
2019-04-16T09:30:11.024Z,15.60
2019-04-16T09:32:52.707Z,16.27
2019-04-16T09:35:22.545Z,14.77
2019-04-16T09:37:55.042Z,18.10
2019-04-16T09:40:27.641Z,14.77
2019-04-16T09:42:56.020Z,14.23
2019-04-16T09:45:25.007Z,16.40
2019-04-16T09:47:53.354Z,15.27
2019-04-16T09:50:21.772Z,17.83
2019-04-16T09:52:52.416Z,12.77
2019-04-16T09:55:20.153Z,16.30
2019-04-16T09:57:48.286Z,18.37
2019-04-16T10:00:30.825Z,16.60
2019-04-16T10:03:00.633Z,17.37
2019-04-16T10:05:29.688Z,18.93
2019-04-16T10:07:58.486Z,15.47
2019-04-16T10:10:27.854Z,15.97
2019-04-16T10:12:56.564Z,18.70
2019-04-16T10:15:24.772Z,19.43
2019-04-16T10:17:53.669Z,19.33
2019-04-16T10:20:22.265Z,13.90
2019-04-16T10:22:50.585Z,18.77
2019-04-16T10:25:18.777Z,15.47
2019-04-16T10:27:48.670Z,16.57
2019-04-16T10:30:21.676Z,17.63
2019-04-16T10:32:49.896Z,19.03
2019-04-16T10:35:18.348Z,16.30
2019-04-16T10:37:46.831Z,17.93
2019-04-16T10:40:25.764Z,15.93
2019-04-16T10:43:12.807Z,17.63
2019-04-16T10:45:42.742Z,16.67
2019-04-16T10:48:12.575Z,17.43
2019-04-16T10:50:45.215Z,17.63
2019-04-16T10:53:17.712Z,16.50
2019-04-16T10:56:03.875Z,19.77
2019-04-16T10:58:49.897Z,19.40
2019-04-16T11:01:37.941Z,19.07
2019-04-16T11:04:08.049Z,17.37
2019-04-16T11:06:38.544Z,15.87
2019-04-16T11:09:07.343Z,17.50
2019-04-16T11:11:35.710Z,18.43
2019-04-16T11:14:04.178Z,17.27
2019-04-16T11:16:35.708Z,19.47
2019-04-16T11:19:02.250Z,19.90
2019-04-16T11:21:30.441Z,18.80
2019-04-16T11:23:58.639Z,16.93
2019-04-16T11:26:26.828Z,18.53
2019-04-16T11:28:54.986Z,18.00
2019-04-16T11:31:24.793Z,19.20
2019-04-16T11:33:52.928Z,16.27
2019-04-16T11:36:21.217Z,13.37
2019-04-16T11:38:49.456Z,14.93
2019-04-16T11:41:17.644Z,14.93
2019-04-16T11:43:45.776Z,13.60
2019-04-16T11:46:13.963Z,14.40
2019-04-16T11:48:42.188Z,13.73
2019-04-16T11:51:10.460Z,16.87
2019-04-16T11:53:38.626Z,17.33
2019-04-16T11:56:06.833Z,16.57
2019-04-16T11:58:39.500Z,14.30
2019-04-16T12:01:25.973Z,14.33
2019-04-16T12:03:58.592Z,10.37
2019-04-16T12:06:29.021Z,15.17
2019-04-16T12:09:13.990Z,13.30
2019-04-16T12:11:53.024Z,15.67
2019-04-16T12:14:34.720Z,13.60
2019-04-16T12:17:19.655Z,10.40
2019-04-16T12:19:49.440Z,11.80
2019-04-16T12:22:25.048Z,11.93
2019-04-16T12:24:54.991Z,13.07
2019-04-16T12:27:36.990Z,11.17
2019-04-16T12:30:14.012Z,12.37
2019-04-16T12:32:59.008Z,13.63
2019-04-16T12:35:40.696Z,13.00
2019-04-16T12:38:28.563Z,7.10
2019-04-16T12:41:01.299Z,8.73
2019-04-16T12:43:34.079Z,5.53
2019-04-16T12:46:20.440Z,7.63
2019-04-16T12:49:02.265Z,4.30
2019-04-16T12:51:39.817Z,5.37
2019-04-16T12:54:16.129Z,4.67
2019-04-16T12:56:49.267Z,7.13
2019-04-16T12:59:22.124Z,5.77
2019-04-16T13:02:05.550Z,7.27
2019-04-16T13:04:38.328Z,5.37
2019-04-16T13:07:11.358Z,6.00
2019-04-16T13:09:41.245Z,6.23
2019-04-16T13:12:11.226Z,5.90
2019-04-16T13:15:00.559Z,5.80
2019-04-16T13:17:21.611Z,5.27
2019-04-16T13:20:07.720Z,6.67
2019-04-16T13:22:40.493Z,7.27
2019-04-16T13:25:13.076Z,5.50
2019-04-16T13:27:42.848Z,6.33
2019-04-16T13:30:11.128Z,8.73
2019-04-16T13:32:39.247Z,6.57
2019-04-16T13:35:07.752Z,8.77
2019-04-16T13:37:37.841Z,7.17
2019-04-16T13:40:10.462Z,9.93
2019-04-16T13:42:38.576Z,7.43
2019-04-16T13:45:21.827Z,7.47
2019-04-16T13:47:54.834Z,9.90
2019-04-16T13:50:24.467Z,11.83
2019-04-16T13:52:55.150Z,12.50
2019-04-16T13:55:44.577Z,7.73
2019-04-16T13:58:13.425Z,7.03
2019-04-16T14:00:43.231Z,8.00
2019-04-16T14:03:13.250Z,10.13
2019-04-16T14:05:42.782Z,7.93
2019-04-16T14:08:11.136Z,7.10
2019-04-16T14:10:43.046Z,8.43
2019-04-16T14:13:13.234Z,8.03
2019-04-16T14:15:40.611Z,6.77
2019-04-16T14:18:09.038Z,9.30
2019-04-16T14:20:37.195Z,6.77
2019-04-16T14:23:05.306Z,8.73
2019-04-16T14:25:33.437Z,7.17
2019-04-16T14:28:03.541Z,8.50
2019-04-16T14:30:33.052Z,6.80
2019-04-16T14:33:01.164Z,8.53
2019-04-16T14:35:33.594Z,10.10
2019-04-16T14:38:00.802Z,8.57
2019-04-16T14:40:29.224Z,11.83
2019-04-16T14:42:58.253Z,10.30
2019-04-16T14:45:57.530Z,9.77
2019-04-16T14:48:13.506Z,6.97
2019-04-16T14:50:41.704Z,6.77
2019-04-16T14:53:10.085Z,8.97
2019-04-16T14:55:59.090Z,9.00
2019-04-16T14:58:29.955Z,9.57
2019-04-16T15:01:02.432Z,9.27
2019-04-16T15:03:35.427Z,8.80
2019-04-16T15:06:08.292Z,6.77
2019-04-16T15:08:38.041Z,8.00
2019-04-16T15:11:13.429Z,9.47
2019-04-16T15:13:46.583Z,8.73
2019-04-16T15:16:25.160Z,9.07
2019-04-16T15:19:11.603Z,10.03
2019-04-16T15:21:57.652Z,7.93
2019-04-16T15:24:33.326Z,9.00
2019-04-16T15:27:03.087Z,9.00
2019-04-16T15:29:44.835Z,6.33
2019-04-16T15:32:14.613Z,8.80
2019-04-16T15:34:44.373Z,8.33
2019-04-16T15:37:26.745Z,7.10
2019-04-16T15:39:59.298Z,8.13
2019-04-16T15:42:28.064Z,7.43
2019-04-16T15:44:58.011Z,6.43
2019-04-16T15:47:32.391Z,7.50
2019-04-16T15:50:04.945Z,5.63
2019-04-16T15:52:40.511Z,6.37
2019-04-16T15:55:10.356Z,9.17
2019-04-16T15:57:52.360Z,9.00
2019-04-16T16:00:27.942Z,7.93
2019-04-16T16:03:14.057Z,8.87
2019-04-16T16:05:52.541Z,5.57
2019-04-16T16:08:30.484Z,3.27
2019-04-16T16:11:18.409Z,3.30
2019-04-16T16:13:46.540Z,3.27
2019-04-16T16:16:17.960Z,3.80
2019-04-16T16:18:44.717Z,4.93
2019-04-16T16:21:12.844Z,5.27
2019-04-16T16:23:41.004Z,5.23
2019-04-16T16:26:09.108Z,4.10
2019-04-16T16:28:37.252Z,3.57
2019-04-16T16:31:05.613Z,4.23
2019-04-16T16:33:33.821Z,2.90
2019-04-16T16:36:01.952Z,2.50
2019-04-16T16:38:30.071Z,3.13
2019-04-16T16:40:58.221Z,2.20
2019-04-16T16:43:26.376Z,2.10
2019-04-16T16:45:56.278Z,2.00
2019-04-16T16:48:25.870Z,3.93
2019-04-16T16:50:54.133Z,2.00
2019-04-16T16:53:26.829Z,2.37
2019-04-16T16:55:56.643Z,1.40
2019-04-16T16:58:26.796Z,1.30
2019-04-16T17:01:14.021Z,1.10
2019-04-16T17:03:44.021Z,0.90
2019-04-16T17:06:13.860Z,1.57
2019-04-16T17:08:41.961Z,2.00
2019-04-16T17:11:16.554Z,1.10
2019-04-16T17:13:40.698Z,1.73
2019-04-16T17:16:13.322Z,1.40
2019-04-16T17:18:38.687Z,1.80
2019-04-16T17:21:06.897Z,1.03
2019-04-16T17:23:35.216Z,1.40
2019-04-16T17:26:03.520Z,4.57
2019-04-16T17:28:31.809Z,2.80
2019-04-16T17:31:00.013Z,5.07
2019-04-16T17:33:28.116Z,2.53
2019-04-16T17:35:56.516Z,3.97
2019-04-16T17:38:24.912Z,2.90
2019-04-16T17:40:58.702Z,2.20
2019-04-16T17:43:35.462Z,3.50
2019-04-16T17:46:05.346Z,2.10
2019-04-16T17:48:41.003Z,1.70
2019-04-16T17:51:10.783Z,1.73
2019-04-16T17:53:43.309Z,1.60
2019-04-16T17:56:21.888Z,1.73
2019-04-16T17:58:57.079Z,1.50
2019-04-16T18:01:26.869Z,2.20
2019-04-16T18:03:56.895Z,1.50
2019-04-16T18:06:43.010Z,1.50
2019-04-16T18:09:15.779Z,1.50
2019-04-16T18:12:01.066Z,1.77
2019-04-16T18:14:47.377Z,4.13
2019-04-16T18:17:29.121Z,3.13
2019-04-16T18:19:58.964Z,2.17
2019-04-16T18:22:34.765Z,4.13
2019-04-16T18:25:21.360Z,2.70
2019-04-16T18:27:51.301Z,2.97
2019-04-16T18:30:36.208Z,3.50
2019-04-16T18:33:09.249Z,2.60
2019-04-16T18:35:39.175Z,2.40
2019-04-16T18:38:22.241Z,2.50
2019-04-16T18:41:10.639Z,2.73
2019-04-16T18:43:52.499Z,2.30
2019-04-16T18:46:30.137Z,3.07
2019-04-16T18:49:05.891Z,2.73
2019-04-16T18:51:34.377Z,3.43
2019-04-16T18:54:02.605Z,4.50
2019-04-16T18:56:30.717Z,2.07
2019-04-16T18:58:58.974Z,2.10
2019-04-16T19:01:29.662Z,2.10
2019-04-16T19:03:58.897Z,2.57
2019-04-16T19:06:27.085Z,3.13
2019-04-16T19:08:55.216Z,2.40
2019-04-16T19:11:23.322Z,2.00
2019-04-16T19:13:51.445Z,3.33
2019-04-16T19:16:19.582Z,2.30
2019-04-16T19:18:47.717Z,2.33
2019-04-16T19:21:15.833Z,2.63
2019-04-16T19:23:44.024Z,3.03
2019-04-16T19:26:12.132Z,3.67
2019-04-16T19:28:40.468Z,4.17
2019-04-16T19:31:08.652Z,2.80
2019-04-16T19:33:38.476Z,2.90
2019-04-16T19:36:06.614Z,6.37
2019-04-16T19:38:35.755Z,3.20
2019-04-16T19:41:05.304Z,3.60
2019-04-16T19:43:35.331Z,2.77
2019-04-16T19:46:03.845Z,2.83
2019-04-16T19:48:35.775Z,3.93
2019-04-16T19:51:02.069Z,3.53
2019-04-16T19:53:30.239Z,4.13
2019-04-16T19:55:58.514Z,4.00
2019-04-16T19:58:26.621Z,3.23
2019-04-16T20:00:57.397Z,4.17
2019-04-16T20:03:24.763Z,3.80
2019-04-16T20:05:54.903Z,2.87
2019-04-16T20:08:23.140Z,3.60
2019-04-16T20:10:51.267Z,3.60
2019-04-16T20:13:19.368Z,4.53
2019-04-16T20:15:47.606Z,3.20
2019-04-16T20:18:16.592Z,3.50
2019-04-16T20:20:47.106Z,5.23
2019-04-16T20:23:14.552Z,3.73
2019-04-16T20:25:42.688Z,2.90
2019-04-16T20:28:15.346Z,3.50
2019-04-16T20:30:40.647Z,3.90
2019-04-16T20:33:08.766Z,3.70
2019-04-16T20:35:36.959Z,2.57
2019-04-16T20:38:05.120Z,2.57
2019-04-16T20:40:33.294Z,2.60
2019-04-16T20:43:01.729Z,3.23
2019-04-16T20:45:29.929Z,4.20
2019-04-16T20:47:58.075Z,5.07
2019-04-16T20:50:26.205Z,3.43
2019-04-16T20:52:54.432Z,4.20
2019-04-16T20:55:22.634Z,4.47
2019-04-16T20:57:50.773Z,4.07
2019-04-16T21:00:29.465Z,3.33
2019-04-16T21:02:57.613Z,3.17
2019-04-16T21:05:25.733Z,2.97
2019-04-16T21:07:54.225Z,3.33
2019-04-16T21:10:22.531Z,3.20
2019-04-16T21:12:50.712Z,3.40
2019-04-16T21:15:18.849Z,4.20
2019-04-16T21:17:47.027Z,3.23
2019-04-16T21:20:19.095Z,3.50
2019-04-16T21:22:45.016Z,4.20
2019-04-16T21:25:13.948Z,3.70
2019-04-16T21:27:52.956Z,4.27
2019-04-16T21:30:21.079Z,2.53
2019-04-16T21:33:03.268Z,2.60
2019-04-16T21:35:42.244Z,2.93
2019-04-16T21:38:17.816Z,2.90
2019-04-16T21:40:45.966Z,3.20
2019-04-16T21:43:14.077Z,2.97
2019-04-16T21:45:42.195Z,2.73
2019-04-16T21:48:12.424Z,2.37
2019-04-16T21:50:40.151Z,2.90
2019-04-16T21:53:08.259Z,2.53
2019-04-16T21:55:36.388Z,2.53
2019-04-16T21:58:04.509Z,3.37
2019-04-16T22:00:37.312Z,3.03
2019-04-16T22:03:10.112Z,2.77
2019-04-16T22:05:36.908Z,2.40
2019-04-16T22:08:05.191Z,2.60
2019-04-16T22:10:33.328Z,2.80
2019-04-16T22:13:01.800Z,3.83
2019-04-16T22:15:29.928Z,2.70
2019-04-16T22:17:58.076Z,2.87
2019-04-16T22:20:26.265Z,2.70
2019-04-16T22:22:54.387Z,2.40
2019-04-16T22:25:23.716Z,4.07
2019-04-16T22:27:52.361Z,2.53
2019-04-16T22:30:20.473Z,2.90
2019-04-16T22:32:48.610Z,2.73
2019-04-16T22:35:16.715Z,3.00
2019-04-16T22:37:44.845Z,2.97
2019-04-16T22:40:30.816Z,3.20
2019-04-16T22:43:06.309Z,3.27
2019-04-16T22:45:40.980Z,4.10
2019-04-16T22:48:09.216Z,3.43
2019-04-16T22:50:37.996Z,4.10
2019-04-16T22:53:06.932Z,3.00
2019-04-16T22:55:35.040Z,3.23
2019-04-16T22:58:04.692Z,3.63
2019-04-16T23:00:34.640Z,4.20
2019-04-16T23:03:02.813Z,3.23
2019-04-16T23:05:32.015Z,2.50
2019-04-16T23:08:00.601Z,5.20
2019-04-16T23:10:28.846Z,3.33
2019-04-16T23:13:00.329Z,3.43
2019-04-16T23:15:27.051Z,3.50
2019-04-16T23:17:55.164Z,3.53
2019-04-16T23:20:29.427Z,3.67
2019-04-16T23:22:53.148Z,3.37
2019-04-16T23:25:27.014Z,3.13
2019-04-16T23:27:51.426Z,3.60
2019-04-16T23:30:19.560Z,3.60
2019-04-16T23:32:47.672Z,4.03
2019-04-16T23:35:15.872Z,3.20
2019-04-16T23:37:44.070Z,3.67
2019-04-16T23:40:12.297Z,3.43
2019-04-16T23:42:42.177Z,3.73
2019-04-16T23:45:31.417Z,5.03
2019-04-16T23:48:02.001Z,5.63
2019-04-16T23:50:44.734Z,3.63
2019-04-16T23:53:14.853Z,6.20
2019-04-16T23:56:00.007Z,5.83
2019-04-16T23:58:32.583Z,4.83
